This is the latest recevied weather packets stored in our database for station/object AB4KY. If no packets are shown the sender has not sent any weather packets the latest 10 day(s).
| Time | Temp. | Humidity | Pressure | Rain* | Wind** | Luminosity | Snow |
|---|---|---|---|---|---|---|---|
| 1777578341 | 15.56° C | 45% | 1014.3 hPa | 0 mm | - | 186 W/m² | - |
| 1777578037 | 16.11° C | 43% | 1014.3 hPa | 0 mm | - | 488 W/m² | - |
| 1777577732 | 15.56° C | 45% | 1014.6 hPa | 0 mm | - | 439 W/m² | - |
| 1777577429 | 16.11° C | 41% | 1014.4 hPa | 0 mm | - | 544 W/m² | - |
| 1777577127 | 16.11° C | 41% | 1014.7 hPa | 0 mm | - | 640 W/m² | - |
| 1777576822 | 16.67° C | 40% | 1014.6 hPa | 0 mm | - | 654 W/m² | - |
| 1777576521 | 15.56° C | 41% | 1014.4 hPa | 0 mm | - | 654 W/m² | - |
| 1777576218 | 15.56° C | 45% | 1014.1 hPa | 0 mm | - | 614 W/m² | - |
| 1777575914 | 15.56° C | 42% | 1014.4 hPa | 0 mm | - | 663 W/m² | - |
| 1777575610 | 15.56° C | 40% | 1014.5 hPa | 0 mm | - | 517 W/m² | - |
| 1777575307 | 15.56° C | 45% | 1014.4 hPa | 0 mm | - | 581 W/m² | - |
| 1777575003 | 15.56° C | 43% | 1014.6 hPa | 0 mm | - | 548 W/m² | - |
| 1777574699 | 15.56° C | 43% | 1014.5 hPa | 0 mm | - | 626 W/m² | - |
| 1777574396 | 15.56° C | 47% | 1014.7 hPa | 0 mm | - | 548 W/m² | - |
| 1777574091 | 15° C | 44% | 1014.6 hPa | 0 mm | - | 541 W/m² | - |
| 1777573781 | 16.11° C | 50% | 1014.5 hPa | 0 mm | - | 668 W/m² | - |
| 1777573477 | 16.11° C | 46% | 1014.7 hPa | 0 mm | - | 707 W/m² | - |
| 1777573173 | 15.56° C | 45% | 1014.6 hPa | 0 mm | - | 668 W/m² | - |
| 1777572870 | 15.56° C | 41% | 1014.7 hPa | 0 mm | - | 640 W/m² | - |
| 1777572565 | 15° C | 44% | 1015 hPa | 0 mm | - | 527 W/m² | - |
| 1777572260 | 15° C | 45% | 1015 hPa | 0 mm | - | 637 W/m² | - |
| 1777571956 | 15° C | 52% | 1015 hPa | 0 mm | - | 703 W/m² | - |
| 1777571651 | 15.56° C | 44% | 1014.9 hPa | 0 mm | - | 683 W/m² | - |
| 1777571349 | 15.56° C | 47% | 1015.1 hPa | 0 mm | - | 717 W/m² | - |
| 1777571044 | 15° C | 56% | 1015.2 hPa | 0 mm | - | 628 W/m² | - |
* Rain latest hour (hover to see other rain measurements)
** Current wind speed in m/s (hover to see current wind gust speed)